createdAt,value
2022-10-13T00:00:16.125Z,22.80
2022-10-13T00:02:44.333Z,22.70
2022-10-13T00:05:13.763Z,22.60
2022-10-13T00:07:41.853Z,22.50
2022-10-13T00:12:39.704Z,22.30
2022-10-13T00:25:05.828Z,22.70
2022-10-13T00:45:05.222Z,22.20
2022-10-13T00:47:38.214Z,22.20
2022-10-13T00:55:08.804Z,22.10
2022-10-13T00:57:39.981Z,22.10
2022-10-13T01:00:09.713Z,22.10
2022-10-13T01:02:39.150Z,22.10
2022-10-13T01:05:08.522Z,21.70
2022-10-13T01:07:37.533Z,22.10
2022-10-13T01:10:07.943Z,22.10
2022-10-13T01:12:44.299Z,22.10
2022-10-13T01:15:17.812Z,22.10
2022-10-13T01:17:57.343Z,21.50
2022-10-13T01:20:57.873Z,22.00
2022-10-13T01:26:18.805Z,22.00
2022-10-13T01:29:06.649Z,21.80
2022-10-13T01:31:44.944Z,22.70
2022-10-13T01:36:55.092Z,21.70
2022-10-13T01:39:28.507Z,21.90
2022-10-13T01:42:02.765Z,21.90
2022-10-13T01:44:35.325Z,21.90
2022-10-13T01:49:36.325Z,21.70
2022-10-13T01:59:38.510Z,21.90
2022-10-13T02:02:17.524Z,21.80
2022-10-13T02:04:54.940Z,21.50
2022-10-13T02:10:03.531Z,21.60
2022-10-13T02:22:34.048Z,21.40
2022-10-13T02:34:57.462Z,21.00
2022-10-13T02:37:25.997Z,21.10
2022-10-13T02:52:18.660Z,22.00
2022-10-13T02:54:46.709Z,21.90
2022-10-13T03:09:38.167Z,21.30
2022-10-13T03:26:58.554Z,21.80
2022-10-13T03:29:26.648Z,21.30
2022-10-13T03:36:51.636Z,21.50
2022-10-13T03:44:18.187Z,21.50
2022-10-13T03:46:46.306Z,21.00
2022-10-13T03:54:13.012Z,20.90
2022-10-13T04:01:40.478Z,21.60
2022-10-13T04:09:05.958Z,20.70
2022-10-13T04:11:34.188Z,20.80
2022-10-13T04:14:02.485Z,21.10
2022-10-13T04:16:32.244Z,20.70
2022-10-13T04:19:03.934Z,21.10
2022-10-13T04:21:34.427Z,21.10
2022-10-13T04:26:34.416Z,20.90
2022-10-13T04:29:04.753Z,20.90
2022-10-13T04:31:34.132Z,20.60
2022-10-13T04:34:03.889Z,20.80
2022-10-13T04:36:32.164Z,20.80
2022-10-13T04:43:57.058Z,21.00
2022-10-13T04:46:27.331Z,21.30
2022-10-13T04:48:55.818Z,20.60
2022-10-13T04:51:26.677Z,21.60
2022-10-13T04:53:58.315Z,20.30
2022-10-13T04:58:55.452Z,20.60
2022-10-13T05:01:25.775Z,20.70
2022-10-13T05:06:25.700Z,22.30
2022-10-13T05:08:53.787Z,21.00
2022-10-13T05:11:22.072Z,20.70
2022-10-13T05:13:50.440Z,21.10
2022-10-13T05:16:21.100Z,21.10
2022-10-13T05:18:49.961Z,20.90
2022-10-13T05:21:20.566Z,20.50
2022-10-13T05:23:53.928Z,21.40
2022-10-13T05:26:22.720Z,20.60
2022-10-13T05:28:51.089Z,20.60
2022-10-13T05:31:21.836Z,21.00
2022-10-13T05:33:51.881Z,20.80
2022-10-13T05:36:21.211Z,20.60
2022-10-13T05:38:53.680Z,20.50
2022-10-13T05:41:22.583Z,20.20
2022-10-13T05:43:52.546Z,21.20
2022-10-13T05:46:20.455Z,20.60
2022-10-13T05:48:48.563Z,20.60
2022-10-13T05:51:21.829Z,21.30
2022-10-13T05:53:57.682Z,20.60
2022-10-13T05:56:32.235Z,20.40
2022-10-13T05:59:03.378Z,20.60
2022-10-13T06:01:35.167Z,20.60
2022-10-13T06:04:06.576Z,20.40
2022-10-13T06:06:35.081Z,20.70
2022-10-13T06:09:04.769Z,20.50
2022-10-13T06:11:32.954Z,20.90
2022-10-13T06:14:01.050Z,21.10
2022-10-13T06:16:29.143Z,20.70
2022-10-13T06:18:57.243Z,21.00
2022-10-13T06:21:25.380Z,20.80
2022-10-13T06:26:23.216Z,20.60
2022-10-13T06:28:55.636Z,20.30
2022-10-13T06:31:26.569Z,20.70
2022-10-13T06:33:54.722Z,20.40
2022-10-13T06:36:22.864Z,20.60
2022-10-13T06:38:50.950Z,20.60
2022-10-13T06:41:19.216Z,20.60
2022-10-13T06:43:48.678Z,20.50
2022-10-13T06:46:16.759Z,20.50
2022-10-13T06:48:44.865Z,20.90
2022-10-13T06:51:13.532Z,20.60
2022-10-13T06:53:41.612Z,20.80
2022-10-13T06:56:10.034Z,20.40
2022-10-13T06:58:38.776Z,20.80
2022-10-13T07:01:09.299Z,20.80
2022-10-13T07:03:37.451Z,20.60
2022-10-13T07:06:07.186Z,20.40
2022-10-13T07:08:36.069Z,21.20
2022-10-13T07:11:14.518Z,21.20
2022-10-13T07:16:17.085Z,20.50
2022-10-13T07:18:45.292Z,21.00
2022-10-13T07:21:13.383Z,21.60
2022-10-13T07:23:41.625Z,21.60
2022-10-13T07:26:11.135Z,22.20
2022-10-13T07:28:40.110Z,21.60
2022-10-13T07:33:40.986Z,21.00
2022-10-13T07:36:09.481Z,21.70
2022-10-13T07:38:38.076Z,21.70
2022-10-13T07:41:08.512Z,22.00
2022-10-13T07:43:36.609Z,21.90
2022-10-13T07:46:06.750Z,21.80
2022-10-13T07:48:35.826Z,21.80
2022-10-13T07:51:07.415Z,21.70
2022-10-13T07:53:36.322Z,21.70
2022-10-13T07:56:05.988Z,21.70
2022-10-13T07:58:34.450Z,21.70
2022-10-13T08:01:03.660Z,21.80
2022-10-13T08:03:32.861Z,21.90
2022-10-13T08:06:01.941Z,21.90
2022-10-13T08:08:31.634Z,21.90
2022-10-13T08:11:02.474Z,22.10
2022-10-13T08:13:30.606Z,22.30
2022-10-13T08:16:01.649Z,22.60
2022-10-13T08:18:30.596Z,23.10
2022-10-13T08:21:32.991Z,23.70
2022-10-13T08:23:51.935Z,24.40
2022-10-13T08:26:25.256Z,25.00
2022-10-13T08:31:42.708Z,26.20
2022-10-13T08:34:12.078Z,26.50
2022-10-13T08:36:40.394Z,26.60
2022-10-13T08:39:09.851Z,26.40
2022-10-13T08:41:40.275Z,26.30
2022-10-13T08:44:56.680Z,26.40
2022-10-13T08:47:11.285Z,26.40
2022-10-13T08:49:41.289Z,26.80
2022-10-13T08:52:16.330Z,26.80
2022-10-13T08:54:45.916Z,26.70
2022-10-13T08:57:14.236Z,26.40
2022-10-13T08:59:42.346Z,26.10
2022-10-13T09:02:14.756Z,25.90
2022-10-13T09:04:49.345Z,25.70
2022-10-13T09:07:22.236Z,25.60
2022-10-13T09:09:54.038Z,25.60
2022-10-13T09:12:24.987Z,25.50
2022-10-13T09:15:01.605Z,25.30
2022-10-13T09:17:31.022Z,25.10
2022-10-13T09:20:02.293Z,25.10
2022-10-13T09:22:32.387Z,25.00
2022-10-13T09:25:20.578Z,25.00
2022-10-13T09:27:51.311Z,24.90
2022-10-13T09:30:34.389Z,24.80
2022-10-13T09:33:36.144Z,24.70
2022-10-13T09:36:13.511Z,24.70
2022-10-13T09:38:43.695Z,24.60
2022-10-13T09:41:20.858Z,24.60
2022-10-13T09:44:10.031Z,24.50
2022-10-13T09:46:45.659Z,24.50
2022-10-13T09:49:35.853Z,24.60
2022-10-13T09:52:07.042Z,24.50
2022-10-13T09:54:42.731Z,24.40
2022-10-13T09:57:27.602Z,24.30
2022-10-13T10:00:03.733Z,24.20
2022-10-13T10:02:36.596Z,24.20
2022-10-13T10:05:12.344Z,24.00
2022-10-13T10:07:40.517Z,23.90
2022-10-13T10:10:25.263Z,23.90
2022-10-13T10:12:55.117Z,23.90
2022-10-13T10:15:32.837Z,24.10
2022-10-13T10:18:08.237Z,24.40
2022-10-13T10:20:47.605Z,24.70
2022-10-13T10:23:24.031Z,25.20
2022-10-13T10:25:55.145Z,25.80
2022-10-13T10:28:52.224Z,26.30
2022-10-13T10:31:31.339Z,26.30
2022-10-13T10:34:09.658Z,26.00
2022-10-13T10:36:47.119Z,25.90
2022-10-13T10:39:28.622Z,25.80
2022-10-13T10:42:04.394Z,25.90
2022-10-13T10:44:36.200Z,26.10
2022-10-13T10:47:08.885Z,26.20
2022-10-13T10:49:39.438Z,26.50
2022-10-13T10:52:11.652Z,27.10
2022-10-13T10:54:49.559Z,27.30
2022-10-13T10:57:24.698Z,27.50
2022-10-13T11:00:01.863Z,27.80
2022-10-13T11:02:44.498Z,27.80
2022-10-13T11:05:13.505Z,27.70
2022-10-13T11:07:59.215Z,27.60
2022-10-13T11:10:27.474Z,27.50
2022-10-13T11:13:22.553Z,27.40
2022-10-13T11:15:52.147Z,27.50
2022-10-13T11:19:08.815Z,27.80
2022-10-13T11:22:24.920Z,28.30
2022-10-13T11:25:37.206Z,28.80
2022-10-13T11:28:50.468Z,29.20
2022-10-13T11:31:32.206Z,29.50
2022-10-13T11:34:04.652Z,29.90
2022-10-13T11:36:50.933Z,31.10
2022-10-13T11:40:00.570Z,30.50
2022-10-13T11:42:53.277Z,30.30
2022-10-13T11:45:46.337Z,30.30
2022-10-13T11:48:26.267Z,29.90
2022-10-13T11:51:06.431Z,29.50
2022-10-13T11:53:42.406Z,29.40
2022-10-13T11:56:21.851Z,29.40
2022-10-13T11:58:50.099Z,30.10
2022-10-13T12:01:20.280Z,30.30
2022-10-13T12:03:49.144Z,29.50
2022-10-13T12:06:35.790Z,29.80
2022-10-13T12:09:06.248Z,29.80
2022-10-13T12:11:37.922Z,29.90
2022-10-13T12:14:20.323Z,29.70
2022-10-13T12:19:26.995Z,30.10
2022-10-13T12:21:57.010Z,30.50
2022-10-13T12:24:27.085Z,30.50
2022-10-13T12:26:56.328Z,31.10
2022-10-13T12:29:27.431Z,31.80
2022-10-13T12:31:58.604Z,32.40
2022-10-13T12:34:28.990Z,33.00
2022-10-13T12:37:00.594Z,32.70
2022-10-13T12:39:30.925Z,32.50
2022-10-13T12:42:00.520Z,32.50
2022-10-13T12:44:31.353Z,32.10
2022-10-13T12:47:03.740Z,32.50
2022-10-13T12:49:33.911Z,31.40
2022-10-13T12:52:07.535Z,32.10
2022-10-13T12:54:38.342Z,31.60
2022-10-13T12:57:17.258Z,31.50
2022-10-13T12:59:45.372Z,31.40
2022-10-13T13:02:23.180Z,31.10
2022-10-13T13:04:51.580Z,31.10
2022-10-13T13:07:31.329Z,30.10
2022-10-13T13:10:11.334Z,29.90
2022-10-13T13:12:39.996Z,29.10
2022-10-13T13:15:35.348Z,28.30
2022-10-13T13:18:39.763Z,28.10
2022-10-13T13:21:10.768Z,28.00
2022-10-13T13:23:39.041Z,27.60
2022-10-13T13:26:13.479Z,27.90
2022-10-13T13:28:45.618Z,27.60
2022-10-13T13:31:15.405Z,26.70
2022-10-13T13:33:43.607Z,28.70
2022-10-13T13:36:18.887Z,27.70
2022-10-13T13:38:47.105Z,27.80
2022-10-13T13:41:16.203Z,27.90
2022-10-13T13:43:44.732Z,28.00
2022-10-13T13:46:16.927Z,28.00
2022-10-13T13:48:45.011Z,28.00
2022-10-13T13:51:13.081Z,27.90
2022-10-13T13:53:42.592Z,27.80
2022-10-13T13:56:13.828Z,27.80
2022-10-13T13:58:41.974Z,27.70
2022-10-13T14:01:10.368Z,27.60
2022-10-13T14:03:38.618Z,27.60
2022-10-13T14:06:07.028Z,27.50
2022-10-13T14:11:12.844Z,27.30
2022-10-13T14:13:41.003Z,27.30
2022-10-13T14:16:13.000Z,27.20
2022-10-13T14:18:41.107Z,27.10
2022-10-13T14:21:09.624Z,26.90
2022-10-13T14:23:37.709Z,26.70
2022-10-13T14:26:09.999Z,26.40
2022-10-13T14:28:41.864Z,26.20
2022-10-13T14:31:10.427Z,26.00
2022-10-13T14:33:38.856Z,26.00
2022-10-13T14:36:08.363Z,25.90
2022-10-13T14:38:36.487Z,25.80
2022-10-13T14:41:06.605Z,25.70
2022-10-13T14:43:34.789Z,25.70
2022-10-13T14:46:07.436Z,25.60
2022-10-13T14:48:36.785Z,25.70
2022-10-13T14:51:08.369Z,25.70
2022-10-13T14:53:37.383Z,25.60
2022-10-13T14:56:17.559Z,25.70
2022-10-13T14:58:45.741Z,25.60
2022-10-13T15:01:15.571Z,25.50
2022-10-13T15:03:43.766Z,25.50
2022-10-13T15:06:15.445Z,25.40
2022-10-13T15:08:44.220Z,25.40
2022-10-13T15:11:13.022Z,25.30
2022-10-13T15:13:41.647Z,25.30
2022-10-13T15:16:17.321Z,25.20
2022-10-13T15:18:45.508Z,25.20
2022-10-13T15:21:13.941Z,25.10
2022-10-13T15:23:42.217Z,25.10
2022-10-13T15:26:12.307Z,25.10
2022-10-13T15:28:42.363Z,25.00
2022-10-13T15:31:10.527Z,24.80
2022-10-13T15:33:40.443Z,24.70
2022-10-13T15:36:09.169Z,24.80
2022-10-13T15:38:37.233Z,24.80
2022-10-13T15:41:06.922Z,24.80
2022-10-13T15:43:35.884Z,24.80
2022-10-13T15:46:06.405Z,24.80
2022-10-13T15:48:35.328Z,24.80
2022-10-13T15:51:13.202Z,24.70
2022-10-13T15:53:41.289Z,24.80
2022-10-13T15:56:09.865Z,24.70
2022-10-13T15:58:38.259Z,24.80
2022-10-13T16:01:09.285Z,24.70
2022-10-13T16:03:37.804Z,24.70
2022-10-13T16:06:09.056Z,24.70
2022-10-13T16:08:37.598Z,24.70
2022-10-13T16:11:09.783Z,24.70
2022-10-13T16:13:37.868Z,24.60
2022-10-13T16:16:06.223Z,24.60
2022-10-13T16:18:36.446Z,24.60
2022-10-13T16:21:15.757Z,24.50
2022-10-13T16:23:46.768Z,24.50
2022-10-13T16:26:15.360Z,24.40
2022-10-13T16:28:43.492Z,24.40
2022-10-13T16:31:13.780Z,24.30
2022-10-13T16:33:42.719Z,24.30
2022-10-13T16:36:14.424Z,24.20
2022-10-13T16:38:42.876Z,24.20
2022-10-13T16:41:14.050Z,24.20
2022-10-13T16:43:43.071Z,24.10
2022-10-13T16:46:14.209Z,24.10
2022-10-13T16:48:43.375Z,24.10
2022-10-13T16:51:16.247Z,24.00
2022-10-13T16:53:44.338Z,24.00
2022-10-13T16:56:14.253Z,24.00
2022-10-13T16:58:45.030Z,24.00
2022-10-13T17:01:14.214Z,23.90
2022-10-13T17:03:45.204Z,23.90
2022-10-13T17:06:16.258Z,23.90
2022-10-13T17:08:45.215Z,23.90
2022-10-13T17:11:18.112Z,23.80
2022-10-13T17:13:46.249Z,23.80
2022-10-13T17:16:14.352Z,23.80
2022-10-13T17:18:42.652Z,23.70
2022-10-13T17:21:15.443Z,23.70
2022-10-13T17:23:48.368Z,23.70
2022-10-13T17:26:18.538Z,23.80
2022-10-13T17:28:46.820Z,23.70
2022-10-13T17:31:17.125Z,23.60
2022-10-13T17:33:46.238Z,23.60
2022-10-13T17:36:17.778Z,23.60
2022-10-13T17:38:46.327Z,23.60
2022-10-13T17:41:15.240Z,23.70
2022-10-13T17:43:44.347Z,23.70
2022-10-13T17:46:35.749Z,23.80
2022-10-13T17:49:03.699Z,23.80
2022-10-13T17:51:33.196Z,22.50
2022-10-13T17:54:02.030Z,22.10
2022-10-13T17:56:30.626Z,22.00
2022-10-13T17:59:00.319Z,22.00
2022-10-13T18:01:31.650Z,22.00
2022-10-13T18:04:01.665Z,22.10
2022-10-13T18:06:35.171Z,22.10
2022-10-13T18:09:07.311Z,22.10
2022-10-13T18:11:36.137Z,22.20
2022-10-13T18:14:04.760Z,22.20
2022-10-13T18:16:36.836Z,22.30
2022-10-13T18:19:05.747Z,22.20
2022-10-13T18:21:33.951Z,22.30
2022-10-13T18:24:03.595Z,22.30
2022-10-13T18:26:35.096Z,22.30
2022-10-13T18:29:05.192Z,22.30
2022-10-13T18:31:35.364Z,22.30
2022-10-13T18:34:06.005Z,22.40
2022-10-13T18:36:35.439Z,22.40
2022-10-13T18:39:05.836Z,22.10
2022-10-13T18:41:36.736Z,21.90
2022-10-13T18:44:05.665Z,21.60
2022-10-13T18:46:34.683Z,21.60
2022-10-13T18:49:02.853Z,21.50
2022-10-13T18:51:35.932Z,21.70
2022-10-13T18:54:07.636Z,22.10
2022-10-13T18:56:37.887Z,22.40
2022-10-13T18:59:08.512Z,22.50
2022-10-13T19:01:38.067Z,22.60
2022-10-13T19:04:06.837Z,22.60
2022-10-13T19:06:35.601Z,22.60
2022-10-13T19:09:05.801Z,22.70
2022-10-13T19:11:36.355Z,22.80
2022-10-13T19:14:05.539Z,22.80
2022-10-13T19:16:37.721Z,22.90
2022-10-13T19:19:07.930Z,22.90
2022-10-13T19:21:36.635Z,22.80
2022-10-13T19:24:05.215Z,22.90
2022-10-13T19:26:35.436Z,22.80
2022-10-13T19:29:08.097Z,22.80
2022-10-13T19:31:38.129Z,22.80
2022-10-13T19:34:06.407Z,22.80
2022-10-13T19:36:38.952Z,22.70
2022-10-13T19:39:11.689Z,22.70
2022-10-13T19:41:40.594Z,22.80
2022-10-13T19:44:10.340Z,22.70
2022-10-13T19:46:38.437Z,22.70
2022-10-13T19:49:11.370Z,22.70
2022-10-13T19:51:43.493Z,22.70
2022-10-13T19:54:12.520Z,22.70
2022-10-13T19:56:40.634Z,22.70
2022-10-13T19:59:10.327Z,22.70
2022-10-13T20:01:41.035Z,22.60
2022-10-13T20:04:09.844Z,22.60
2022-10-13T20:06:38.463Z,22.60
2022-10-13T20:09:06.885Z,22.60
2022-10-13T20:11:35.109Z,22.60
2022-10-13T20:14:03.688Z,22.60
2022-10-13T20:16:33.549Z,22.60
2022-10-13T20:19:02.186Z,22.50
2022-10-13T20:21:30.593Z,22.50
2022-10-13T20:23:59.088Z,22.50
2022-10-13T20:26:27.571Z,22.50
2022-10-13T20:28:58.223Z,22.50
2022-10-13T20:31:27.063Z,22.50
2022-10-13T20:33:58.437Z,22.40
2022-10-13T20:36:27.861Z,22.40
2022-10-13T20:38:56.465Z,22.40
2022-10-13T20:41:25.962Z,22.40
2022-10-13T20:43:55.920Z,22.40
2022-10-13T20:46:24.773Z,22.40
2022-10-13T20:49:11.793Z,22.40
2022-10-13T20:51:42.611Z,22.40
2022-10-13T20:54:11.394Z,22.40
2022-10-13T20:56:40.333Z,22.30
2022-10-13T20:59:10.287Z,22.30
2022-10-13T21:01:38.537Z,22.30
2022-10-13T21:04:06.969Z,22.30
2022-10-13T21:06:35.930Z,22.30
2022-10-13T21:09:06.286Z,22.30
2022-10-13T21:11:34.842Z,22.20
2022-10-13T21:14:06.549Z,22.20
2022-10-13T21:16:35.445Z,22.20
2022-10-13T21:19:04.730Z,22.20
2022-10-13T21:21:34.687Z,22.20
2022-10-13T21:24:06.745Z,22.20
2022-10-13T21:26:35.808Z,22.20
2022-10-13T21:29:06.794Z,22.10
2022-10-13T21:31:35.416Z,22.10
2022-10-13T21:34:03.566Z,22.10
2022-10-13T21:36:33.384Z,22.10
2022-10-13T21:39:06.102Z,22.10
2022-10-13T21:41:34.522Z,22.10
2022-10-13T21:44:02.769Z,22.10
2022-10-13T21:46:32.563Z,22.10
2022-10-13T21:49:02.042Z,22.10
2022-10-13T21:51:33.024Z,22.10
2022-10-13T21:54:02.486Z,22.10
2022-10-13T21:56:33.687Z,22.10
2022-10-13T21:59:02.054Z,22.00
2022-10-13T22:01:30.641Z,22.00
2022-10-13T22:04:00.752Z,22.00
2022-10-13T22:06:29.921Z,22.00
2022-10-13T22:09:00.148Z,21.90
2022-10-13T22:11:32.475Z,21.90
2022-10-13T22:14:01.915Z,21.90
2022-10-13T22:16:32.104Z,21.90
2022-10-13T22:19:00.419Z,21.90
2022-10-13T22:21:30.949Z,21.90
2022-10-13T22:24:00.305Z,21.90
2022-10-13T22:26:29.596Z,21.90
2022-10-13T22:28:58.038Z,21.90
2022-10-13T22:31:27.809Z,21.90
2022-10-13T22:33:56.363Z,21.80
2022-10-13T22:36:26.426Z,21.80
2022-10-13T22:38:58.457Z,21.80
2022-10-13T22:41:26.851Z,21.80
2022-10-13T22:43:56.221Z,21.80
2022-10-13T22:46:27.191Z,21.80
2022-10-13T22:48:57.645Z,21.80
2022-10-13T22:51:28.461Z,21.80
2022-10-13T22:53:57.485Z,21.80
2022-10-13T22:56:28.212Z,21.70
2022-10-13T22:58:57.893Z,21.70
2022-10-13T23:01:26.468Z,21.70
2022-10-13T23:03:57.820Z,21.70
2022-10-13T23:06:27.431Z,21.70
2022-10-13T23:08:55.684Z,21.70
2022-10-13T23:11:24.163Z,21.70
2022-10-13T23:13:52.235Z,21.70
2022-10-13T23:16:22.600Z,21.70
2022-10-13T23:18:51.413Z,21.70
2022-10-13T23:21:23.291Z,21.60
2022-10-13T23:23:56.060Z,21.70
2022-10-13T23:26:24.481Z,21.70
2022-10-13T23:28:52.818Z,21.60
2022-10-13T23:31:20.972Z,21.60
2022-10-13T23:33:49.311Z,21.60
2022-10-13T23:36:21.425Z,21.60
2022-10-13T23:38:50.173Z,21.60
2022-10-13T23:41:18.425Z,21.50
2022-10-13T23:43:46.748Z,21.50
2022-10-13T23:46:14.823Z,21.60
2022-10-13T23:48:44.067Z,21.50
2022-10-13T23:51:15.222Z,21.50
2022-10-13T23:53:44.772Z,21.50
2022-10-13T23:56:14.143Z,21.50
2022-10-13T23:58:43.956Z,21.50
